createdAt,value
2023-06-11T00:03:08.423Z,6.60
2023-06-11T00:08:11.135Z,6.30
2023-06-11T00:13:12.864Z,7.63
2023-06-11T00:18:15.549Z,6.32
2023-06-11T00:23:17.223Z,7.50
2023-06-11T00:28:19.642Z,5.97
2023-06-11T00:33:21.533Z,6.78
2023-06-11T00:38:23.319Z,5.93
2023-06-11T00:43:25.164Z,6.10
2023-06-11T00:48:27.185Z,6.75
2023-06-11T00:53:29.166Z,6.15
2023-06-11T00:58:31.140Z,5.70
2023-06-11T01:03:34.608Z,6.00
2023-06-11T01:08:41.983Z,5.18
2023-06-11T01:13:43.848Z,5.95
2023-06-11T01:19:05.021Z,6.35
2023-06-11T01:24:18.022Z,5.63
2023-06-11T01:29:23.494Z,4.95
2023-06-11T01:34:28.064Z,5.03
2023-06-11T01:39:30.210Z,6.00
2023-06-11T01:44:36.666Z,6.53
2023-06-11T01:49:38.388Z,5.65
2023-06-11T01:54:40.168Z,5.78
2023-06-11T01:59:41.911Z,6.57
2023-06-11T02:04:43.560Z,6.85
2023-06-11T02:09:45.373Z,7.68
2023-06-11T02:14:47.052Z,7.43
2023-06-11T02:19:48.790Z,6.10
2023-06-11T02:24:50.877Z,6.18
2023-06-11T02:29:53.108Z,5.90
2023-06-11T02:34:55.527Z,5.93
2023-06-11T02:39:57.280Z,5.38
2023-06-11T02:44:59.060Z,6.35
2023-06-11T02:50:00.893Z,6.38
2023-06-11T02:55:02.599Z,7.25
2023-06-11T03:00:04.887Z,6.72
2023-06-11T03:05:06.914Z,5.75
2023-06-11T03:10:09.182Z,6.50
2023-06-11T03:15:11.392Z,6.13
2023-06-11T03:20:14.322Z,5.05
2023-06-11T03:25:16.496Z,6.20
2023-06-11T03:30:18.742Z,6.32
2023-06-11T03:35:20.673Z,6.32
2023-06-11T03:40:23.292Z,5.93
2023-06-11T03:45:26.897Z,5.40
2023-06-11T03:50:28.579Z,6.25
2023-06-11T03:55:32.277Z,5.60
2023-06-11T04:00:34.128Z,5.13
2023-06-11T04:05:37.763Z,4.80
2023-06-11T04:10:40.937Z,5.38
2023-06-11T04:15:43.106Z,4.85
2023-06-11T04:20:46.736Z,5.22
2023-06-11T04:25:51.908Z,5.07
2023-06-11T04:30:59.057Z,3.88
2023-06-11T04:36:10.488Z,4.63
2023-06-11T04:41:14.887Z,5.45
2023-06-11T04:46:20.360Z,4.63
2023-06-11T04:51:24.976Z,5.10
2023-06-11T04:56:28.455Z,5.32
2023-06-11T05:01:31.511Z,5.55
2023-06-11T05:06:34.833Z,5.10
2023-06-11T05:11:38.380Z,5.80
2023-06-11T05:16:42.559Z,4.68
2023-06-11T05:21:46.099Z,4.45
2023-06-11T05:26:48.012Z,4.45
2023-06-11T05:31:52.148Z,4.15
2023-06-11T05:36:54.066Z,4.20
2023-06-11T05:41:55.842Z,3.72
2023-06-11T05:46:58.982Z,3.97
2023-06-11T05:52:01.730Z,4.13
2023-06-11T05:57:04.687Z,3.92
2023-06-11T06:02:07.188Z,3.60
2023-06-11T06:07:08.931Z,3.30
2023-06-11T06:12:11.595Z,3.05
2023-06-11T06:17:14.293Z,3.33
2023-06-11T06:22:17.508Z,3.40
2023-06-11T06:27:19.275Z,3.22
2023-06-11T06:32:21.390Z,2.85
2023-06-11T06:37:25.259Z,3.13
2023-06-11T06:42:27.077Z,3.30
2023-06-11T06:47:32.726Z,2.72
2023-06-11T06:52:34.974Z,3.35
2023-06-11T06:57:36.851Z,3.33
2023-06-11T07:02:38.684Z,2.92
2023-06-11T07:07:43.469Z,3.28
2023-06-11T07:12:46.561Z,3.53
2023-06-11T07:17:48.531Z,3.40
2023-06-11T07:22:52.691Z,3.40
2023-06-11T07:27:54.838Z,3.15
2023-06-11T07:32:57.510Z,3.05
2023-06-11T07:37:59.493Z,3.55
2023-06-11T07:43:01.618Z,3.40
2023-06-11T07:48:06.706Z,3.28
2023-06-11T07:53:10.009Z,3.58
2023-06-11T07:58:12.383Z,3.33
2023-06-11T08:03:14.313Z,3.67
2023-06-11T08:08:15.973Z,3.70
2023-06-11T08:13:17.725Z,3.42
2023-06-11T08:18:20.155Z,3.50
2023-06-11T08:23:22.103Z,3.63
2023-06-11T08:28:23.886Z,3.65
2023-06-11T08:33:25.760Z,3.30
2023-06-11T08:38:29.298Z,3.85
2023-06-11T08:43:31.055Z,3.75
2023-06-11T08:48:37.340Z,3.40
2023-06-11T08:53:40.524Z,3.40
2023-06-11T08:58:42.430Z,3.92
2023-06-11T09:03:44.221Z,3.83
2023-06-11T09:08:59.665Z,3.20
2023-06-11T09:14:02.334Z,3.90
2023-06-11T09:19:04.028Z,3.75
2023-06-11T09:24:10.096Z,3.58
2023-06-11T09:29:11.839Z,3.42
2023-06-11T09:34:17.647Z,3.28
2023-06-11T09:39:19.376Z,3.10
2023-06-11T09:44:21.897Z,3.42
2023-06-11T09:49:23.613Z,3.40
2023-06-11T09:54:25.699Z,3.40
2023-06-11T09:59:28.886Z,3.55
2023-06-11T10:04:30.806Z,4.03
2023-06-11T10:09:33.540Z,3.35
2023-06-11T10:14:36.262Z,4.45
2023-06-11T10:19:38.285Z,3.78
2023-06-11T10:24:40.025Z,3.70
2023-06-11T10:29:49.562Z,3.88
2023-06-11T10:34:56.251Z,4.05
2023-06-11T10:39:58.114Z,3.72
2023-06-11T10:44:59.985Z,3.50
2023-06-11T10:50:09.098Z,4.05
2023-06-11T10:55:12.203Z,3.40
2023-06-11T11:00:14.886Z,3.38
2023-06-11T11:05:16.668Z,3.22
2023-06-11T11:10:20.657Z,3.30
2023-06-11T11:15:22.882Z,3.22
2023-06-11T11:20:24.678Z,3.40
2023-06-11T11:25:31.232Z,3.58
2023-06-11T11:30:33.040Z,3.83
2023-06-11T11:35:46.787Z,3.35
2023-06-11T11:40:58.509Z,3.50
2023-06-11T11:46:00.376Z,3.40
2023-06-11T11:51:09.629Z,3.72
2023-06-11T11:56:11.520Z,3.75
2023-06-11T12:01:24.255Z,3.40
2023-06-11T12:06:26.754Z,3.53
2023-06-11T12:11:28.593Z,3.80
2023-06-11T12:16:30.349Z,3.95
2023-06-11T12:21:33.306Z,4.47
2023-06-11T12:26:34.945Z,3.88
2023-06-11T12:31:37.432Z,3.47
2023-06-11T12:36:39.938Z,4.35
2023-06-11T12:41:41.876Z,3.38
2023-06-11T12:46:43.626Z,3.85
2023-06-11T12:51:47.774Z,4.13
2023-06-11T12:56:49.449Z,3.40
2023-06-11T13:01:51.512Z,4.30
2023-06-11T13:06:53.381Z,4.22
2023-06-11T13:11:55.355Z,4.10
2023-06-11T13:16:57.126Z,4.22
2023-06-11T13:21:58.819Z,3.72
2023-06-11T13:27:00.864Z,3.75
2023-06-11T13:32:03.019Z,3.78
2023-06-11T13:37:04.757Z,3.95
2023-06-11T13:42:06.715Z,3.75
2023-06-11T13:47:09.548Z,4.22
2023-06-11T13:52:11.442Z,3.80
2023-06-11T13:57:13.186Z,4.03
2023-06-11T14:02:14.932Z,4.07
2023-06-11T14:07:16.675Z,4.35
2023-06-11T14:12:18.394Z,4.25
2023-06-11T14:17:20.098Z,3.78
2023-06-11T14:22:21.915Z,3.83
2023-06-11T14:27:23.585Z,3.90
2023-06-11T14:32:26.520Z,4.20
2023-06-11T14:37:28.413Z,3.92
2023-06-11T14:42:30.098Z,4.10
2023-06-11T14:47:31.922Z,3.97
2023-06-11T14:52:33.772Z,3.90
2023-06-11T14:57:35.763Z,3.78
2023-06-11T15:02:37.652Z,3.95
2023-06-11T15:07:39.513Z,4.03
2023-06-11T15:12:41.209Z,4.20
2023-06-11T15:17:43.020Z,4.32
2023-06-11T15:22:44.871Z,4.07
2023-06-11T15:27:50.998Z,4.20
2023-06-11T15:32:52.769Z,4.13
2023-06-11T15:37:54.469Z,4.38
2023-06-11T15:42:56.172Z,3.92
2023-06-11T15:47:57.931Z,4.55
2023-06-11T15:52:59.781Z,4.28
2023-06-11T15:58:01.535Z,4.13
2023-06-11T16:03:03.392Z,4.45
2023-06-11T16:08:05.308Z,4.45
2023-06-11T16:13:07.017Z,4.22
2023-06-11T16:18:08.722Z,4.45
2023-06-11T16:23:10.425Z,4.80
2023-06-11T16:28:12.729Z,4.55
2023-06-11T16:33:14.555Z,4.85
2023-06-11T16:38:16.278Z,4.47
2023-06-11T16:43:18.037Z,4.82
2023-06-11T16:48:19.824Z,5.05
2023-06-11T16:53:21.627Z,4.35
2023-06-11T16:58:23.366Z,5.30
2023-06-11T17:03:25.218Z,5.15
2023-06-11T17:08:27.325Z,5.25
2023-06-11T17:13:29.078Z,5.28
2023-06-11T17:18:31.371Z,5.25
2023-06-11T17:23:33.093Z,4.47
2023-06-11T17:28:34.836Z,4.97
2023-06-11T17:33:36.482Z,5.20
2023-06-11T17:38:38.161Z,4.13
2023-06-11T17:43:39.816Z,5.25
2023-06-11T17:48:41.517Z,4.88
2023-06-11T17:53:43.286Z,4.32
2023-06-11T17:58:45.099Z,4.70
2023-06-11T18:03:46.884Z,4.25
2023-06-11T18:08:49.312Z,4.75
2023-06-11T18:13:51.003Z,4.30
2023-06-11T18:18:53.555Z,4.32
2023-06-11T18:23:55.406Z,4.60
2023-06-11T18:28:57.314Z,4.25
2023-06-11T18:33:59.021Z,4.00
2023-06-11T18:39:00.767Z,4.32
2023-06-11T18:44:02.905Z,3.70
2023-06-11T18:49:17.114Z,3.60
2023-06-11T18:54:18.836Z,3.65
2023-06-11T18:59:20.577Z,3.63
2023-06-11T19:04:23.945Z,3.88
2023-06-11T19:09:26.201Z,3.60
2023-06-11T19:14:27.935Z,3.95
2023-06-11T19:19:29.660Z,4.20
2023-06-11T19:24:31.457Z,3.47
2023-06-11T19:29:33.178Z,3.58
2023-06-11T19:34:34.851Z,4.25
2023-06-11T19:39:36.519Z,4.13
2023-06-11T19:44:38.371Z,3.78
2023-06-11T19:49:40.109Z,3.22
2023-06-11T19:54:51.521Z,3.90
2023-06-11T19:59:53.768Z,3.60
2023-06-11T20:04:55.631Z,3.85
2023-06-11T20:09:57.869Z,4.22
2023-06-11T20:14:59.658Z,3.38
2023-06-11T20:20:01.334Z,4.13
2023-06-11T20:25:03.244Z,3.47
2023-06-11T20:30:05.367Z,3.83
2023-06-11T20:35:07.559Z,3.83
2023-06-11T20:40:10.123Z,3.38
2023-06-11T20:45:12.607Z,3.47
2023-06-11T20:50:14.608Z,3.70
2023-06-11T20:55:16.857Z,3.28
2023-06-11T21:00:18.742Z,3.45
2023-06-11T21:05:21.569Z,3.80
2023-06-11T21:10:23.568Z,3.83
2023-06-11T21:15:25.247Z,3.30
2023-06-11T21:20:27.125Z,3.75
2023-06-11T21:25:28.951Z,3.63
2023-06-11T21:30:30.686Z,4.60
2023-06-11T21:35:32.401Z,4.00
2023-06-11T21:40:34.061Z,4.10
2023-06-11T21:45:35.900Z,4.38
2023-06-11T21:50:37.592Z,3.92
2023-06-11T21:55:39.242Z,3.63
2023-06-11T22:00:40.969Z,3.78
2023-06-11T22:05:42.628Z,3.88
2023-06-11T22:10:44.552Z,4.30
2023-06-11T22:15:46.233Z,3.55
2023-06-11T22:20:48.122Z,3.65
2023-06-11T22:25:50.072Z,3.55
2023-06-11T22:30:56.913Z,4.82
2023-06-11T22:35:59.127Z,3.85
2023-06-11T22:41:00.783Z,4.40
2023-06-11T22:46:02.505Z,4.80
2023-06-11T22:51:10.612Z,5.00
2023-06-11T22:56:12.799Z,3.90
2023-06-11T23:01:14.542Z,4.68
2023-06-11T23:06:16.498Z,3.55
2023-06-11T23:11:18.716Z,4.55
2023-06-11T23:16:21.532Z,4.00
2023-06-11T23:21:23.339Z,4.22
2023-06-11T23:26:25.110Z,4.03
2023-06-11T23:31:27.329Z,4.10
2023-06-11T23:36:29.098Z,6.70
2023-06-11T23:41:30.748Z,4.95
2023-06-11T23:46:34.580Z,4.43
2023-06-11T23:51:36.303Z,3.85
2023-06-11T23:56:38.192Z,3.50
